Time;durP1;ratioP1;P1;durP2;ratioP2;P2;SDS_P1;SDS_P2;PMS_P1;PMS_P2;Temp;Humidity;BMP_temperature;BMP_pressure;BME280_temperature;BME280_humidity;BME280_pressure;Samples;Min_cycle;Max_cycle;Signal;HPM_P1;HPM_P2
2021/01/02 00:02:26;;;;;;;;;;;;;;;-1.43;80.22;97794.84;1681808;85;26249;-89
2021/01/02 00:05:12;;;;;;;;;;;;;;;-1.45;80.24;97801.74;1682784;84;24678;-88
2021/01/02 00:08:00;;;;;;;;;;;;;;;-1.40;80.27;97797.73;1718651;81;33407;-88
2021/01/02 00:10:47;;;;;;;;;;;;;;;-1.37;80.30;97803.63;1684190;82;25306;-88
2021/01/02 00:13:33;;;;;;;;;;;;;;;-1.31;80.32;97804.69;1722874;81;22323;-88
2021/01/02 00:16:19;;;;;;;;;;;;;;;-1.24;80.35;97806.61;1688541;84;27150;-89
2021/01/02 00:19:07;;;;;;;;;;;;;;;-1.14;80.41;97804.58;1684500;83;24623;-89
2021/01/02 00:21:53;;;;;;;;;;;;;;;-1.09;80.45;97810.42;1657503;84;21237;-89
2021/01/02 00:24:39;;;;;;;;;;;;;;;-1.06;80.51;97803.89;1666707;84;25136;-89
2021/01/02 00:27:25;;;;;;;;;;;;;;;-1.01;80.57;97813.55;1671419;84;22139;-89
2021/01/02 00:30:10;;;;;;;;;;;;;;;-1.00;80.60;97811.39;1684619;84;26134;-89
2021/01/02 00:32:56;;;;;;;;;;;;;;;-1.00;80.62;97807.53;1693517;83;24681;-89
2021/01/02 00:35:49;;;;;;;;;;;;;;;-1.01;80.67;97814.84;1723176;81;20588;-88
2021/01/02 00:38:34;;;;;;;;;;;;;;;-1.02;80.68;97815.28;1741457;81;25156;-88
2021/01/02 00:41:20;;;;;;;;;;;;;;;-1.00;80.71;97812.67;1731990;81;22079;-88
2021/01/02 00:43:54;;;;;;;;;;;;;;;-0.95;80.73;97815.92;1736478;81;26247;-88
2021/01/02 00:46:40;;;;;;;;;;;;;;;-0.93;80.75;97820.57;1724965;81;24702;-88
2021/01/02 00:49:26;;;;;;;;;;;;;;;-0.86;80.77;97820.30;1687587;83;20283;-89
2021/01/02 00:52:00;;;;;;;;;;;;;;;-0.83;80.78;97815.52;1694077;83;24986;-88
2021/01/02 00:54:52;;;;;;;;;;;;;;;-0.83;80.83;97824.50;1719967;81;22981;-89
2021/01/02 00:57:38;;;;;;;;;;;;;;;-0.85;80.86;97818.56;1739938;81;26135;-88
2021/01/02 01:00:25;;;;;;;;;;;;;;;-0.85;80.87;97828.40;1710343;83;24654;-88
2021/01/02 01:03:10;;;;;;;;;;;;;;;-0.82;80.91;97818.48;1731041;81;20334;-90
2021/01/02 01:05:56;;;;;;;;;;;;;;;-0.77;80.92;97822.17;1736348;81;25127;-88
2021/01/02 01:08:44;;;;;;;;;;;;;;;-0.77;80.93;97824.30;1694258;83;22327;-89
2021/01/02 01:11:30;;;;;;;;;;;;;;;-0.71;80.96;97830.95;1715417;83;26096;-89
2021/01/02 01:14:19;;;;;;;;;;;;;;;-0.67;81.00;97827.38;1740767;81;24691;-89
2021/01/02 01:17:05;;;;;;;;;;;;;;;-0.61;81.03;97825.44;1722365;81;20672;-89
2021/01/02 01:19:51;;;;;;;;;;;;;;;-0.48;81.05;97829.23;1722057;80;25254;-88
2021/01/02 01:22:37;;;;;;;;;;;;;;;-0.47;81.08;97828.79;1684907;82;22145;-88
2021/01/02 01:25:23;;;;;;;;;;;;;;;-0.49;81.13;97831.84;1727749;82;26149;-88
2021/01/02 01:28:09;;;;;;;;;;;;;;;-0.50;81.16;97829.75;1700035;84;25711;-88
2021/01/02 01:30:55;;;;;;;;;;;;;;;-0.48;81.19;97831.80;1692953;84;20277;-88
2021/01/02 01:33:41;;;;;;;;;;;;;;;-0.44;81.21;97829.98;1694259;83;25126;-87
2021/01/02 01:36:31;;;;;;;;;;;;;;;-0.45;81.23;97830.87;1705206;83;22271;-88
2021/01/02 01:39:17;;;;;;;;;;;;;;;-0.47;81.24;97827.06;1694422;84;26086;-88
2021/01/02 01:42:03;;;;;;;;;;;;;;;-0.45;81.28;97830.87;1725015;81;24626;-88
2021/01/02 01:44:50;;;;;;;;;;;;;;;-0.47;81.29;97828.34;1728917;81;20453;-88
2021/01/02 01:47:36;;;;;;;;;;;;;;;-0.40;81.30;97827.69;1702998;83;25124;-89
2021/01/02 01:50:22;;;;;;;;;;;;;;;-0.39;81.32;97834.51;1681678;82;22216;-89
2021/01/02 01:53:08;;;;;;;;;;;;;;;-0.35;81.33;97835.23;1727409;81;26414;-89
2021/01/02 01:55:43;;;;;;;;;;;;;;;-0.31;81.37;97835.50;1702486;83;24694;-89
2021/01/02 01:58:29;;;;;;;;;;;;;;;-0.21;81.39;97840.25;1682482;84;20481;-88
2021/01/02 02:01:15;;;;;;;;;;;;;;;-0.16;81.42;97837.50;1725168;82;25277;-89
2021/01/02 02:04:01;;;;;;;;;;;;;;;-0.14;81.45;97838.30;1702267;82;22164;-90
2021/01/02 02:06:48;;;;;;;;;;;;;;;-0.15;81.47;97842.60;1727649;80;27157;-89
2021/01/02 02:09:36;;;;;;;;;;;;;;;-0.14;81.52;97840.88;1683170;84;24603;-90
2021/01/02 02:12:23;;;;;;;;;;;;;;;-0.15;81.54;97835.33;1726423;82;20490;-88
2021/01/02 02:15:13;;;;;;;;;;;;;;;-0.16;81.55;97837.06;1686088;82;26021;-88
2021/01/02 02:17:59;;;;;;;;;;;;;;;-0.16;81.56;97827.22;1726295;82;22883;-88
2021/01/02 02:20:45;;;;;;;;;;;;;;;-0.15;81.57;97826.33;1688063;84;26243;-89
2021/01/02 02:23:31;;;;;;;;;;;;;;;-0.08;81.59;97829.08;1733554;81;24830;-88
2021/01/02 02:26:19;;;;;;;;;;;;;;;0.03;81.60;97824.38;1710318;82;20696;-89
2021/01/02 02:29:05;;;;;;;;;;;;;;;0.00;81.64;97826.59;1712511;82;25194;-88
2021/01/02 02:31:53;;;;;;;;;;;;;;;0.04;81.67;97830.36;1689838;83;22297;-89
2021/01/02 02:34:42;;;;;;;;;;;;;;;0.08;81.71;97827.61;1734837;80;26140;-89
2021/01/02 02:37:27;;;;;;;;;;;;;;;0.06;81.72;97825.97;1701654;82;24708;-88
2021/01/02 02:40:17;;;;;;;;;;;;;;;0.01;81.75;97821.01;1742854;81;20284;-88
2021/01/02 02:43:03;;;;;;;;;;;;;;;-0.02;81.77;97823.27;1696726;84;25377;-89
2021/01/02 02:45:49;;;;;;;;;;;;;;;-0.04;81.78;97819.90;1698985;83;22076;-89
2021/01/02 02:48:39;;;;;;;;;;;;;;;-0.04;81.77;97820.34;1699240;84;26150;-89
2021/01/02 02:51:25;;;;;;;;;;;;;;;-0.05;81.78;97817.38;1703732;84;24852;-89
2021/01/02 02:54:00;;;;;;;;;;;;;;;-0.04;81.78;97815.20;1698388;82;20404;-88
2021/01/02 02:56:48;;;;;;;;;;;;;;;-0.05;81.81;97817.38;1700118;83;25887;-89
2021/01/02 02:59:34;;;;;;;;;;;;;;;-0.07;81.81;97817.45;1706537;83;22070;-88
2021/01/02 03:02:20;;;;;;;;;;;;;;;-0.09;81.82;97817.11;1701617;83;26190;-89
2021/01/02 03:05:07;;;;;;;;;;;;;;;-0.13;81.83;97822.83;1690783;84;24718;-89
2021/01/02 03:07:53;;;;;;;;;;;;;;;-0.12;81.84;97818.08;1701091;83;20287;-89
2021/01/02 03:10:39;;;;;;;;;;;;;;;-0.11;81.87;97825.34;1704542;83;26043;-88
2021/01/02 03:13:26;;;;;;;;;;;;;;;-0.14;81.87;97818.57;1696027;84;22131;-88
2021/01/02 03:16:12;;;;;;;;;;;;;;;-0.12;81.88;97827.52;1699782;83;26099;-88
2021/01/02 03:19:00;;;;;;;;;;;;;;;-0.11;81.89;97824.06;1698135;84;25553;-88
2021/01/02 03:21:50;;;;;;;;;;;;;;;-0.10;81.92;97824.42;1685067;84;20268;-89
2021/01/02 03:24:36;;;;;;;;;;;;;;;-0.10;81.96;97820.13;1679878;84;25071;-89
2021/01/02 03:27:22;;;;;;;;;;;;;;;-0.06;81.98;97820.87;1731585;81;22152;-88
2021/01/02 03:30:09;;;;;;;;;;;;;;;-0.03;82.00;97828.02;1680653;84;26228;-88
2021/01/02 03:32:55;;;;;;;;;;;;;;;-0.04;82.03;97824.20;1732661;82;24873;-88
2021/01/02 03:35:41;;;;;;;;;;;;;;;-0.03;82.04;97819.02;1732277;81;20441;-88
2021/01/02 03:38:27;;;;;;;;;;;;;;;-0.04;82.07;97821.63;1685814;84;25134;-89
2021/01/02 03:41:13;;;;;;;;;;;;;;;-0.04;82.11;97815.20;1693069;83;22071;-89
2021/01/02 03:44:00;;;;;;;;;;;;;;;-0.04;82.11;97822.47;1679358;84;26396;-88
2021/01/02 03:46:50;;;;;;;;;;;;;;;0.00;82.13;97824.50;1733913;82;24724;-88
2021/01/02 03:49:36;;;;;;;;;;;;;;;0.02;82.15;97825.27;1699576;83;20528;-88
2021/01/02 03:52:22;;;;;;;;;;;;;;;0.08;82.17;97820.34;1727462;81;25771;-89
2021/01/02 03:55:10;;;;;;;;;;;;;;;0.09;82.20;97820.28;1692074;84;22174;-90
2021/01/02 03:57:56;;;;;;;;;;;;;;;0.09;82.22;97828.45;1689070;84;26123;-89
2021/01/02 04:00:45;;;;;;;;;;;;;;;0.07;82.23;97827.66;1730893;82;24625;-89
2021/01/02 04:03:32;;;;;;;;;;;;;;;0.05;82.25;97825.61;1736804;81;20653;-88
2021/01/02 04:06:19;;;;;;;;;;;;;;;0.03;82.25;97820.52;1683249;82;25171;-88
2021/01/02 04:09:05;;;;;;;;;;;;;;;0.02;82.27;97830.41;1733654;82;23287;-88
2021/01/02 04:11:51;;;;;;;;;;;;;;;0.04;82.28;97831.64;1680362;84;26993;-88
2021/01/02 04:14:37;;;;;;;;;;;;;;;0.08;82.29;97831.47;1737015;80;24572;-88
2021/01/02 04:17:23;;;;;;;;;;;;;;;0.08;82.28;97833.20;1692063;83;20670;-90
2021/01/02 04:20:09;;;;;;;;;;;;;;;0.20;82.29;97835.31;1703896;83;25227;-89
2021/01/02 04:22:55;;;;;;;;;;;;;;;0.18;82.29;97834.52;1681397;83;22149;-89
2021/01/02 04:25:41;;;;;;;;;;;;;;;0.17;82.33;97842.69;1677211;84;26996;-89
2021/01/02 04:28:28;;;;;;;;;;;;;;;0.04;82.35;97833.77;1678468;84;26457;-89
2021/01/02 04:31:14;;;;;;;;;;;;;;;-0.06;82.36;97836.30;1697633;83;20643;-89
2021/01/02 04:34:02;;;;;;;;;;;;;;;-0.11;82.33;97840.30;1675430;84;25197;-88
2021/01/02 04:36:50;;;;;;;;;;;;;;;-0.10;82.31;97837.28;1658018;85;22161;-89
2021/01/02 04:39:40;;;;;;;;;;;;;;;-0.08;82.31;97832.48;1676195;83;27030;-89
2021/01/02 04:42:26;;;;;;;;;;;;;;;-0.06;82.32;97832.44;1653520;86;24601;-89
2021/01/02 04:45:12;;;;;;;;;;;;;;;-0.11;82.33;97839.49;1666745;85;20579;-89
2021/01/02 04:47:58;;;;;;;;;;;;;;;-0.11;82.33;97839.49;1696257;84;26073;-89
2021/01/02 04:50:44;;;;;;;;;;;;;;;-0.11;82.33;97849.30;1675640;84;22245;-90
2021/01/02 04:53:30;;;;;;;;;;;;;;;-0.08;82.35;97851.78;1698444;82;26153;-90
2021/01/02 04:56:16;;;;;;;;;;;;;;;-0.09;82.36;97858.25;1674015;85;23907;-89
2021/01/02 04:59:02;;;;;;;;;;;;;;;-0.14;82.38;97855.02;1700807;83;20571;-89
2021/01/02 05:01:48;;;;;;;;;;;;;;;-0.13;82.37;97859.27;1676671;84;25075;-89
2021/01/02 05:04:35;;;;;;;;;;;;;;;-0.18;82.40;97863.30;1677008;85;22142;-89
2021/01/02 05:07:21;;;;;;;;;;;;;;;-0.21;82.38;97856.96;1675438;83;26247;-89
2021/01/02 05:10:07;;;;;;;;;;;;;;;-0.26;82.40;97858.02;1676136;85;25426;-90
2021/01/02 05:12:53;;;;;;;;;;;;;;;-0.25;82.40;97862.27;1690859;83;20320;-90
2021/01/02 05:15:39;;;;;;;;;;;;;;;-0.26;82.41;97874.73;1673921;85;25114;-89
2021/01/02 05:18:25;;;;;;;;;;;;;;;-0.24;82.40;97871.67;1675935;84;22216;-90
2021/01/02 05:21:11;;;;;;;;;;;;;;;-0.29;82.42;97879.55;1679413;83;26177;-88
2021/01/02 05:23:57;;;;;;;;;;;;;;;-0.33;82.43;97881.00;1678178;85;24634;-88
2021/01/02 05:26:44;;;;;;;;;;;;;;;-0.36;82.45;97869.53;1737418;81;20282;-88
2021/01/02 05:29:31;;;;;;;;;;;;;;;-0.37;82.45;97875.56;1684848;83;25287;-87
2021/01/02 05:32:19;;;;;;;;;;;;;;;-0.35;82.44;97879.77;1688939;84;21993;-88
2021/01/02 05:35:05;;;;;;;;;;;;;;;-0.36;82.47;97882.37;1683664;83;27073;-89
2021/01/02 05:37:51;;;;;;;;;;;;;;;-0.43;82.47;97878.73;1701828;82;24649;-89
2021/01/02 05:40:37;;;;;;;;;;;;;;;-0.45;82.48;97881.83;1733675;81;20324;-89
2021/01/02 05:43:23;;;;;;;;;;;;;;;-0.43;82.51;97880.02;1689069;84;24349;-89
2021/01/02 05:46:10;;;;;;;;;;;;;;;-0.39;82.51;97886.36;1680862;83;23068;-89
2021/01/02 05:48:56;;;;;;;;;;;;;;;-0.26;82.52;97884.58;1724150;81;26136;-88
2021/01/02 05:51:41;;;;;;;;;;;;;;;-0.23;82.54;97892.19;1731376;82;24428;-88
2021/01/02 05:54:28;;;;;;;;;;;;;;;-0.20;82.58;97895.09;1693580;84;20376;-88
2021/01/02 05:57:14;;;;;;;;;;;;;;;-0.21;82.62;97893.41;1721804;82;25342;-89
2021/01/02 06:00:00;;;;;;;;;;;;;;;-0.23;82.65;97897.78;1735057;82;22362;-89
2021/01/02 06:02:49;;;;;;;;;;;;;;;-0.18;82.67;97906.17;1686218;84;26256;-90
2021/01/02 06:05:38;;;;;;;;;;;;;;;-0.15;82.68;97900.45;1685954;84;24607;-89
2021/01/02 06:08:24;;;;;;;;;;;;;;;-0.03;82.70;97905.61;1681791;84;20182;-89
2021/01/02 06:11:14;;;;;;;;;;;;;;;-0.07;82.73;97902.77;1685452;84;24433;-89
2021/01/02 06:13:59;;;;;;;;;;;;;;;-0.15;82.78;97902.19;1703345;83;23079;-89
2021/01/02 06:16:34;;;;;;;;;;;;;;;-0.07;82.76;97901.48;1730695;81;26286;-89
2021/01/02 06:19:22;;;;;;;;;;;;;;;-0.02;82.79;97899.58;1684983;82;24759;-88
2021/01/02 06:22:08;;;;;;;;;;;;;;;-0.03;82.79;97901.31;1707645;83;20467;-89
2021/01/02 06:24:59;;;;;;;;;;;;;;;-0.01;82.80;97905.97;1736256;81;25103;-89
2021/01/02 06:27:46;;;;;;;;;;;;;;;-0.04;82.81;97906.50;1733859;82;22994;-89
2021/01/02 06:30:32;;;;;;;;;;;;;;;-0.12;82.83;97898.23;1703912;82;26148;-89
2021/01/02 06:33:18;;;;;;;;;;;;;;;-0.12;82.83;97904.22;1724640;81;25471;-89
2021/01/02 06:36:05;;;;;;;;;;;;;;;-0.08;82.82;97908.80;1735684;82;20420;-88
2021/01/02 06:38:50;;;;;;;;;;;;;;;-0.08;82.82;97900.64;1689179;83;25475;-89
2021/01/02 06:41:41;;;;;;;;;;;;;;;-0.12;82.83;97908.52;1691506;83;22975;-87
2021/01/02 06:44:27;;;;;;;;;;;;;;;-0.12;82.81;97912.38;1698425;83;26215;-88
2021/01/02 06:47:12;;;;;;;;;;;;;;;-0.05;82.82;97907.39;1727953;82;24618;-89
2021/01/02 06:49:59;;;;;;;;;;;;;;;0.04;82.82;97900.65;1709883;83;20273;-89
2021/01/02 06:52:46;;;;;;;;;;;;;;;0.02;82.83;97910.14;1731432;82;25031;-90
2021/01/02 06:55:37;;;;;;;;;;;;;;;0.18;82.83;97907.84;1685936;83;22400;-89
2021/01/02 06:58:25;;;;;;;;;;;;;;;0.32;82.81;97912.89;1743624;81;26348;-88
2021/01/02 07:01:11;;;;;;;;;;;;;;;0.51;82.84;97922.03;1682932;84;23927;-89
2021/01/02 07:03:57;;;;;;;;;;;;;;;0.68;82.86;97921.39;1736745;81;20334;-89
2021/01/02 07:06:44;;;;;;;;;;;;;;;0.70;82.88;97918.31;1708574;83;25980;-89
2021/01/02 07:09:33;;;;;;;;;;;;;;;0.74;82.92;97918.13;1737277;81;22187;-89
2021/01/02 07:12:19;;;;;;;;;;;;;;;0.91;82.92;97926.94;1737074;81;26086;-90
2021/01/02 07:15:05;;;;;;;;;;;;;;;1.04;82.93;97920.37;1693941;82;25563;-90
2021/01/02 07:17:51;;;;;;;;;;;;;;;1.05;82.95;97916.91;1703846;82;20308;-89
2021/01/02 07:20:37;;;;;;;;;;;;;;;1.12;82.95;97926.92;1678748;84;25090;-89
2021/01/02 07:23:24;;;;;;;;;;;;;;;1.11;82.97;97932.97;1727543;80;22206;-89
2021/01/02 07:26:10;;;;;;;;;;;;;;;1.05;82.98;97935.78;1690793;82;27013;-88
2021/01/02 07:28:56;;;;;;;;;;;;;;;0.94;82.98;97929.38;1735344;81;24625;-88
2021/01/02 07:31:42;;;;;;;;;;;;;;;0.76;83.00;97935.63;1697903;82;20492;-88
2021/01/02 07:34:28;;;;;;;;;;;;;;;0.60;82.98;97944.03;1692706;84;25108;-89
2021/01/02 07:40:03;;;;;;;;;;;;;;;0.49;82.88;97934.14;1749383;80;26176;-89
2021/01/02 07:42:49;;;;;;;;;;;;;;;0.36;82.85;97938.05;1762605;80;24849;-90
2021/01/02 07:45:38;;;;;;;;;;;;;;;0.36;82.81;97941.47;1757721;81;20609;-90
2021/01/02 07:48:24;;;;;;;;;;;;;;;0.36;82.76;97941.91;1741843;81;25133;-90
2021/01/02 07:51:10;;;;;;;;;;;;;;;0.47;82.73;97942.36;1756613;81;22195;-90
2021/01/02 07:53:57;;;;;;;;;;;;;;;0.56;82.74;97938.58;1756262;79;26983;-90
2021/01/02 07:56:45;;;;;;;;;;;;;;;0.69;82.71;97930.80;1762247;79;24818;-90
2021/01/02 07:59:31;;;;;;;;;;;;;;;0.84;82.74;97928.46;1725056;82;20180;-90
2021/01/02 08:02:21;;;;;;;;;;;;;;;1.01;82.75;97930.82;1764038;79;25134;-91
2021/01/02 08:05:08;;;;;;;;;;;;;;;1.10;82.77;97930.00;1761942;80;22009;-90
2021/01/02 08:07:56;;;;;;;;;;;;;;;1.25;82.80;97923.41;1731965;82;27004;-91
2021/01/02 08:10:44;;;;;;;;;;;;;;;1.40;82.82;97939.97;1708244;82;24685;-91
2021/01/02 08:13:32;;;;;;;;;;;;;;;1.53;82.85;97941.13;1728027;81;20493;-91
2021/01/02 08:16:18;;;;;;;;;;;;;;;1.56;82.89;97948.30;1707744;82;25133;-91
2021/01/02 08:19:05;;;;;;;;;;;;;;;1.51;82.91;97941.66;1723395;82;22192;-91
2021/01/02 08:21:51;;;;;;;;;;;;;;;1.33;82.95;97950.14;1722020;82;27184;-90
2021/01/02 08:24:39;;;;;;;;;;;;;;;1.22;82.95;97953.16;1769161;79;24858;-90
2021/01/02 08:27:24;;;;;;;;;;;;;;;1.10;82.94;97959.63;1766239;79;20351;-90
2021/01/02 08:30:14;;;;;;;;;;;;;;;1.02;82.93;97965.55;1762173;80;25196;-88
2021/01/02 08:33:02;;;;;;;;;;;;;;;0.99;82.89;97957.92;1771539;79;22368;-89
2021/01/02 08:35:48;;;;;;;;;;;;;;;0.99;82.85;97961.78;1734931;81;26189;-90
2021/01/02 08:38:34;;;;;;;;;;;;;;;0.97;82.83;97952.45;1764651;80;24596;-89
2021/01/02 08:41:22;;;;;;;;;;;;;;;0.98;82.82;97953.70;1710092;83;20555;-88
2021/01/02 08:43:55;;;;;;;;;;;;;;;1.01;82.79;97951.43;1717110;82;25167;-88
2021/01/02 08:46:42;;;;;;;;;;;;;;;1.01;82.79;97957.42;1714830;83;22376;-88
2021/01/02 08:49:28;;;;;;;;;;;;;;;1.04;82.78;97953.42;1710104;83;26082;-88
2021/01/02 08:52:14;;;;;;;;;;;;;;;1.08;82.81;97956.30;1715845;81;24710;-89
2021/01/02 08:55:00;;;;;;;;;;;;;;;1.11;82.82;97960.02;1710497;81;20242;-90
2021/01/02 08:57:46;;;;;;;;;;;;;;;1.19;82.81;97956.70;1718524;82;25183;-89
2021/01/02 09:00:32;;;;;;;;;;;;;;;1.23;82.85;97960.83;1710955;83;22202;-88
2021/01/02 09:03:18;;;;;;;;;;;;;;;1.29;82.87;97959.75;1708775;83;26277;-89
2021/01/02 09:06:04;;;;;;;;;;;;;;;1.38;82.89;97964.52;1710744;83;25497;-89
2021/01/02 09:08:38;;;;;;;;;;;;;;;1.41;82.90;97964.86;1714431;82;20295;-89
2021/01/02 09:11:24;;;;;;;;;;;;;;;1.45;82.94;97959.95;1714462;83;25157;-88
2021/01/02 09:14:10;;;;;;;;;;;;;;;1.50;82.95;97969.18;1715445;83;22962;-89
2021/01/02 09:16:57;;;;;;;;;;;;;;;1.63;82.96;97972.10;1718801;83;26119;-89
2021/01/02 09:19:43;;;;;;;;;;;;;;;1.87;82.95;97976.22;1708352;83;24697;-90
2021/01/02 09:22:36;;;;;;;;;;;;;;;1.91;82.97;97972.59;1720247;83;20537;-89
2021/01/02 09:25:22;;;;;;;;;;;;;;;1.88;83.00;97971.45;1711177;81;25063;-89
2021/01/02 09:28:10;;;;;;;;;;;;;;;1.79;83.04;97972.30;1718428;83;22214;-90
2021/01/02 09:30:56;;;;;;;;;;;;;;;1.84;83.04;97986.68;1717461;82;26158;-89
2021/01/02 09:33:42;;;;;;;;;;;;;;;1.89;83.06;97982.16;1719580;82;24790;-89
2021/01/02 09:36:28;;;;;;;;;;;;;;;1.86;83.05;97980.14;1714370;83;20268;-89
2021/01/02 09:39:15;;;;;;;;;;;;;;;1.78;83.06;97970.16;1718692;81;25342;-89
2021/01/02 09:42:03;;;;;;;;;;;;;;;1.65;83.05;97963.38;1711227;82;23278;-89
2021/01/02 09:44:49;;;;;;;;;;;;;;;1.53;83.06;97964.33;1749852;80;26894;-90
2021/01/02 09:47:35;;;;;;;;;;;;;;;1.48;83.01;97972.27;1750020;81;24626;-90
2021/01/02 09:50:21;;;;;;;;;;;;;;;1.52;82.98;97976.86;1749183;82;20334;-90
2021/01/02 09:53:08;;;;;;;;;;;;;;;1.60;82.97;97973.05;1749734;80;25228;-88
2021/01/02 09:55:54;;;;;;;;;;;;;;;1.70;82.95;97973.50;1748955;81;22104;-89
2021/01/02 09:58:41;;;;;;;;;;;;;;;1.77;82.95;97963.33;1745278;82;25395;-89
2021/01/02 10:01:27;;;;;;;;;;;;;;;1.79;82.98;97971.01;1712496;83;24741;-88
2021/01/02 10:04:12;;;;;;;;;;;;;;;1.82;83.00;97965.70;1748199;80;20547;-90
2021/01/02 10:06:58;;;;;;;;;;;;;;;1.98;82.99;97972.73;1749794;82;25090;-92
2021/01/02 10:09:45;;;;;;;;;;;;;;;2.12;83.02;97965.70;1749207;82;22131;-89
2021/01/02 10:12:31;;;;;;;;;;;;;;;2.17;83.06;97965.49;1713344;83;26008;-87
2021/01/02 10:15:05;;;;;;;;;;;;;;;2.27;83.05;97961.14;1763660;80;25694;-89
2021/01/02 10:20:38;;;;;;;;;;;;;;;2.40;83.12;97956.28;1737250;82;25324;-89
2021/01/02 10:23:27;;;;;;;;;;;;;;;2.45;83.15;97947.42;1730084;82;22624;-89
2021/01/02 10:28:58;;;;;;;;;;;;;;;2.51;83.18;97935.50;1713054;83;23882;-89
2021/01/02 10:31:50;;;;;;;;;;;;;;;2.48;83.21;97949.02;1748646;81;20270;-90
2021/01/02 10:34:38;;;;;;;;;;;;;;;2.42;83.22;97940.25;1751289;82;26031;-89
2021/01/02 10:37:24;;;;;;;;;;;;;;;2.35;83.26;97929.80;1749072;81;22058;-90
2021/01/02 10:40:12;;;;;;;;;;;;;;;2.33;83.21;97927.77;1744640;82;26347;-90
2021/01/02 10:42:50;;;;;;;;;;;;;;;2.41;83.19;97926.95;1756389;80;24596;-91
2021/01/02 10:45:36;;;;;;;;;;;;;;;2.52;83.16;97917.81;1711900;82;20473;-89
2021/01/02 10:48:24;;;;;;;;;;;;;;;2.56;83.19;97917.69;1759671;80;25089;-90
2021/01/02 10:51:09;;;;;;;;;;;;;;;2.67;83.18;97912.41;1750782;80;22243;-88
2021/01/02 10:53:56;;;;;;;;;;;;;;;2.91;83.18;97916.41;1746951;80;26125;-88
2021/01/02 10:56:29;;;;;;;;;;;;;;;3.06;83.20;97914.83;1711448;83;24603;-89
2021/01/02 10:59:16;;;;;;;;;;;;;;;3.13;83.23;97906.33;1757883;80;20341;-91
2021/01/02 11:02:02;;;;;;;;;;;;;;;3.22;83.26;97898.95;1765673;80;25134;-89
2021/01/02 11:04:53;;;;;;;;;;;;;;;3.39;83.28;97900.72;1761049;80;22066;-89
2021/01/02 11:07:42;;;;;;;;;;;;;;;3.46;83.29;97902.09;1712651;82;27076;-88
2021/01/02 11:10:31;;;;;;;;;;;;;;;3.62;83.32;97898.28;1757596;80;24640;-87
2021/01/02 11:13:17;;;;;;;;;;;;;;;3.77;83.33;97905.25;1746777;80;20533;-88
2021/01/02 11:16:03;;;;;;;;;;;;;;;3.85;83.36;97894.52;1749459;80;25098;-88
2021/01/02 11:18:49;;;;;;;;;;;;;;;3.96;83.42;97900.82;1711523;82;22141;-88
2021/01/02 11:21:36;;;;;;;;;;;;;;;4.10;83.43;97901.38;1714456;83;26147;-89
2021/01/02 11:24:22;;;;;;;;;;;;;;;4.23;83.48;97890.77;1705675;82;24591;-88
2021/01/02 11:27:08;;;;;;;;;;;;;;;4.43;83.52;97890.53;1756449;80;20383;-88
2021/01/02 11:29:54;;;;;;;;;;;;;;;4.56;83.53;97888.13;1713567;83;25091;-87
2021/01/02 11:32:40;;;;;;;;;;;;;;;4.72;83.58;97882.94;1714663;82;22072;-88
2021/01/02 11:35:32;;;;;;;;;;;;;;;4.88;83.60;97883.30;1714459;82;26830;-89
2021/01/02 11:38:18;;;;;;;;;;;;;;;5.03;83.63;97876.41;1713025;82;24578;-90
2021/01/02 11:41:04;;;;;;;;;;;;;;;5.12;83.67;97877.20;1723605;82;20325;-89
2021/01/02 11:43:55;;;;;;;;;;;;;;;5.20;83.69;97874.98;1757287;80;25097;-88
2021/01/02 11:46:35;;;;;;;;;;;;;;;5.26;83.71;97866.86;1724033;82;22248;-89
2021/01/02 11:49:25;;;;;;;;;;;;;;;5.33;83.71;97869.48;1727816;81;26082;-90
2021/01/02 11:52:12;;;;;;;;;;;;;;;5.38;83.75;97871.34;1745542;80;24771;-91
2021/01/02 11:54:58;;;;;;;;;;;;;;;5.46;83.71;97870.42;1745302;80;20341;-90
2021/01/02 11:57:44;;;;;;;;;;;;;;;5.59;83.70;97867.12;1709186;82;25090;-91
2021/01/02 12:00:30;;;;;;;;;;;;;;;5.64;83.70;97867.22;1750834;80;23232;-91
2021/01/02 12:03:16;;;;;;;;;;;;;;;5.66;83.70;97863.25;1717013;82;26401;-91
2021/01/02 12:06:03;;;;;;;;;;;;;;;5.71;83.71;97861.21;1744939;81;24836;-91
2021/01/02 12:08:49;;;;;;;;;;;;;;;5.80;83.71;97855.00;1748626;80;20348;-92
2021/01/02 12:11:36;;;;;;;;;;;;;;;5.92;83.69;97862.55;1739440;82;25385;-91
2021/01/02 12:14:22;;;;;;;;;;;;;;;6.02;83.67;97864.96;1743672;80;22894;-90
2021/01/02 12:17:08;;;;;;;;;;;;;;;6.10;83.65;97861.45;1714600;83;26352;-91
2021/01/02 12:19:54;;;;;;;;;;;;;;;6.15;83.63;97867.20;1704953;82;25385;-91
2021/01/02 12:22:42;;;;;;;;;;;;;;;6.21;83.60;97865.52;1725224;82;20271;-91
2021/01/02 12:25:28;;;;;;;;;;;;;;;6.24;83.56;97864.48;1733824;82;25231;-90
2021/01/02 12:28:15;;;;;;;;;;;;;;;6.30;83.52;97864.11;1744448;81;22129;-91
2021/01/02 12:31:05;;;;;;;;;;;;;;;6.37;83.51;97874.51;1708942;83;25283;-90
2021/01/02 12:33:49;;;;;;;;;;;;;;;6.36;83.46;97875.89;1706590;83;27511;-91
2021/01/02 12:36:36;;;;;;;;;;;;;;;6.21;83.46;97876.38;1745616;80;20282;-91
2021/01/02 12:39:22;;;;;;;;;;;;;;;6.21;83.42;97874.62;1746744;82;26083;-91
2021/01/02 12:42:08;;;;;;;;;;;;;;;6.26;83.37;97875.63;1739288;81;22164;-91
2021/01/02 12:44:54;;;;;;;;;;;;;;;6.33;83.33;97882.09;1742582;81;26114;-92
2021/01/02 12:47:41;;;;;;;;;;;;;;;6.35;83.29;97882.85;1749315;80;24588;-91
2021/01/02 12:50:32;;;;;;;;;;;;;;;6.42;83.26;97888.05;1743359;82;20506;-91
2021/01/02 12:53:18;;;;;;;;;;;;;;;6.45;83.24;97894.80;1740226;81;25186;-91
2021/01/02 12:56:05;;;;;;;;;;;;;;;6.49;83.19;97887.21;1745149;80;22131;-91
2021/01/02 12:58:51;;;;;;;;;;;;;;;6.53;83.15;97889.98;1745074;81;27056;-91
2021/01/02 13:01:41;;;;;;;;;;;;;;;6.58;83.10;97894.42;1744619;81;24631;-91
2021/01/02 13:04:27;;;;;;;;;;;;;;;6.57;83.09;97892.75;1743599;82;20276;-91
2021/01/02 13:07:01;;;;;;;;;;;;;;;6.46;83.08;97888.68;1745824;82;25118;-91
2021/01/02 13:09:52;;;;;;;;;;;;;;;6.42;83.07;97893.70;1745240;81;22115;-92
2021/01/02 13:12:38;;;;;;;;;;;;;;;6.40;83.05;97895.09;1747713;80;26080;-91
2021/01/02 13:15:24;;;;;;;;;;;;;;;6.40;83.00;97895.55;1745681;81;24867;-90
2021/01/02 13:18:09;;;;;;;;;;;;;;;6.35;82.98;97896.30;1743772;80;20306;-90
2021/01/02 13:20:57;;;;;;;;;;;;;;;6.34;82.94;97903.72;1745597;81;25882;-90
2021/01/02 13:23:43;;;;;;;;;;;;;;;6.34;82.92;97902.42;1746584;80;23105;-90
2021/01/02 13:26:32;;;;;;;;;;;;;;;6.25;82.88;97910.33;1739724;81;27124;-92
2021/01/02 13:29:18;;;;;;;;;;;;;;;6.21;82.86;97909.70;1745809;81;24575;-90
2021/01/02 13:32:01;;;;;;;;;;;;;;;6.21;82.86;97912.29;1744046;82;20404;-90
2021/01/02 13:34:47;;;;;;;;;;;;;;;6.26;82.81;97907.64;1745745;81;25126;-91
2021/01/02 13:37:33;;;;;;;;;;;;;;;6.30;82.80;97903.92;1746821;80;22154;-91
2021/01/02 13:40:19;;;;;;;;;;;;;;;6.29;82.79;97902.25;1745627;81;26252;-91
2021/01/02 13:43:05;;;;;;;;;;;;;;;6.35;82.78;97904.94;1751752;80;24763;-90
2021/01/02 13:45:53;;;;;;;;;;;;;;;6.42;82.75;97909.30;1752506;80;20277;-91
2021/01/02 13:48:40;;;;;;;;;;;;;;;6.45;82.75;97913.00;1717411;83;26242;-90
2021/01/02 13:51:14;;;;;;;;;;;;;;;6.41;82.75;97917.56;1762073;81;22171;-91
2021/01/02 13:53:48;;;;;;;;;;;;;;;6.48;82.73;97915.42;1750307;79;26116;-92
2021/01/02 13:56:36;;;;;;;;;;;;;;;6.47;82.72;97915.89;1716931;83;25424;-91
2021/01/02 13:59:23;;;;;;;;;;;;;;;6.39;82.71;97914.67;1763578;80;20314;-91
2021/01/02 14:04:49;;;;;;;;;;;;;;;6.35;82.68;97911.89;1751529;80;23131;-92
2021/01/02 14:07:35;;;;;;;;;;;;;;;6.28;82.67;97916.16;1717811;83;26116;-91
2021/01/02 14:10:23;;;;;;;;;;;;;;;6.27;82.62;97909.78;1757785;80;25578;-90
2021/01/02 14:13:09;;;;;;;;;;;;;;;6.26;82.59;97910.25;1723614;82;20684;-91
2021/01/02 14:15:59;;;;;;;;;;;;;;;6.24;82.54;97916.45;1730473;82;25118;-90
2021/01/02 14:18:45;;;;;;;;;;;;;;;6.23;82.51;97909.11;1715758;82;22196;-90
2021/01/02 14:21:31;;;;;;;;;;;;;;;6.25;82.45;97909.87;1755698;81;26326;-90
2021/01/02 14:24:18;;;;;;;;;;;;;;;6.26;82.41;97905.05;1757395;80;25820;-91
2021/01/02 14:27:04;;;;;;;;;;;;;;;6.27;82.34;97911.89;1716392;82;20400;-90
2021/01/02 14:29:50;;;;;;;;;;;;;;;6.30;82.25;97916.08;1755951;81;25635;-90
2021/01/02 14:32:37;;;;;;;;;;;;;;;6.21;82.19;97907.55;1716804;83;22165;-90
2021/01/02 14:35:23;;;;;;;;;;;;;;;6.00;82.17;97908.36;1759001;81;26130;-90
2021/01/02 14:38:09;;;;;;;;;;;;;;;5.88;82.11;97920.34;1752933;81;24587;-90
2021/01/02 14:40:55;;;;;;;;;;;;;;;5.73;82.06;97922.94;1716129;82;20299;-90
2021/01/02 14:43:42;;;;;;;;;;;;;;;5.74;82.02;97930.65;1726428;80;26024;-90